Airfield :
LOGIN :

Register | Disclaimer

   EN    FR    IT 

 










Legend :    VFR   Marginal VFR   IFR   Intensive IFR   Very Intensive IFR
Visi :
Ceiling :
>= 8 km
>= 3000ft
5 to 8 km
1000 to 3000 ft
1500m to 5 km
500 to 1000 ft
800 to 1500m
200 to 500 ft
< 800m
< 200 ft
Symbols :   Thunderstorms  Fog  Heavy snow  Heavy precipitations  Wind > 20 kt
SIGMETs :     Misc.  Thunderstorms  Icing  Turbulence  Mountain Waves  Volcanic Ashes






- Airport Elevation : 34 ft
- IATA code : KRF


ESNK - Kramfors Sollefteå

CURRENT METAR :
  • 181750Z 17008KT 9999 -RA SCT057 BKN076 14/11 Q1004

EXPIRED METARs :
  • 181720Z 18013KT CAVOK 16/11 Q1004
  • 181650Z 16016KT 9999 SCT029 BKN047 17/13 Q1004
  • 181620Z 16012KT 9999 SCT043 18/13 Q1004
  • 181550Z 17010KT 9999 SCT035 BKN045 18/13 Q1004
  • 181520Z 17009KT 9999 FEW032 SCT044 18/13 Q1004
  • 181450Z 15008KT 9999 BKN031 OVC049 18/13 Q1005
  • 181420Z AUTO 16010KT 9999 FEW022/// SCT033/// OVC057/// 17/13 Q1005
  • 181350Z 17011KT 9999 OVC059 17/12 Q1005
  • 181320Z 16007KT 9999 BKN062 18/11 Q1005

Expired Forecast.



MET'MAP, your aeronautical weather chart ! - Copyright ORBIFLY December 2007 - Disclaimer

ORBIFLY MET'MAP TEAM :

Programming & Development : Alexandra Zaïnal
Original concept : Baudouin d'Aumeries
Technical & hardware support : Manuel Goepfert
Assistance : Marc-Olivier Méhu




SOURCES & CREDITS :

   NOAA